sensor_id;sensor_type;location;lat;lon;timestamp;P1;durP1;ratioP1;P2;durP2;ratioP2
8716;SDS011;4395;48.554;8.820;2023-02-01T00:00:46;5.25;;;4.20;;
8716;SDS011;4395;48.554;8.820;2023-02-01T00:02:48;4.72;;;4.03;;
8716;SDS011;4395;48.554;8.820;2023-02-01T00:04:51;5.63;;;4.47;;
8716;SDS011;4395;48.554;8.820;2023-02-01T00:06:54;4.95;;;4.18;;
8716;SDS011;4395;48.554;8.820;2023-02-01T00:08:57;4.75;;;4.00;;
8716;SDS011;4395;48.554;8.820;2023-02-01T00:11:00;4.40;;;3.90;;
8716;SDS011;4395;48.554;8.820;2023-02-01T00:13:04;4.10;;;3.80;;
8716;SDS011;4395;48.554;8.820;2023-02-01T00:15:07;5.68;;;4.50;;
8716;SDS011;4395;48.554;8.820;2023-02-01T00:17:10;5.78;;;4.28;;
8716;SDS011;4395;48.554;8.820;2023-02-01T00:19:14;4.50;;;4.07;;
8716;SDS011;4395;48.554;8.820;2023-02-01T00:21:18;4.30;;;3.70;;
8716;SDS011;4395;48.554;8.820;2023-02-01T00:23:22;4.22;;;3.80;;
8716;SDS011;4395;48.554;8.820;2023-02-01T00:25:25;5.20;;;3.67;;
8716;SDS011;4395;48.554;8.820;2023-02-01T00:27:28;4.40;;;3.72;;
8716;SDS011;4395;48.554;8.820;2023-02-01T00:29:32;4.10;;;3.70;;
8716;SDS011;4395;48.554;8.820;2023-02-01T00:31:35;6.30;;;3.85;;
8716;SDS011;4395;48.554;8.820;2023-02-01T00:33:38;5.55;;;4.20;;
8716;SDS011;4395;48.554;8.820;2023-02-01T00:35:41;4.50;;;3.67;;
8716;SDS011;4395;48.554;8.820;2023-02-01T00:37:43;3.50;;;3.20;;
8716;SDS011;4395;48.554;8.820;2023-02-01T00:39:46;3.28;;;2.97;;
8716;SDS011;4395;48.554;8.820;2023-02-01T00:41:49;3.38;;;3.08;;
8716;SDS011;4395;48.554;8.820;2023-02-01T00:43:52;3.22;;;2.92;;
8716;SDS011;4395;48.554;8.820;2023-02-01T00:45:56;3.35;;;3.05;;
8716;SDS011;4395;48.554;8.820;2023-02-01T00:47:58;3.47;;;3.17;;
8716;SDS011;4395;48.554;8.820;2023-02-01T00:50:01;3.17;;;2.85;;
8716;SDS011;4395;48.554;8.820;2023-02-01T00:52:05;3.30;;;3.05;;
8716;SDS011;4395;48.554;8.820;2023-02-01T00:54:07;4.55;;;3.40;;
8716;SDS011;4395;48.554;8.820;2023-02-01T00:56:10;3.50;;;3.20;;
8716;SDS011;4395;48.554;8.820;2023-02-01T00:58:14;3.05;;;2.75;;
8716;SDS011;4395;48.554;8.820;2023-02-01T01:00:17;3.88;;;3.47;;
8716;SDS011;4395;48.554;8.820;2023-02-01T01:02:22;3.72;;;3.35;;
8716;SDS011;4395;48.554;8.820;2023-02-01T01:04:25;3.88;;;3.45;;
8716;SDS011;4395;48.554;8.820;2023-02-01T01:06:28;3.78;;;3.47;;
8716;SDS011;4395;48.554;8.820;2023-02-01T01:08:32;3.92;;;3.60;;
8716;SDS011;4395;48.554;8.820;2023-02-01T01:10:36;4.00;;;3.60;;
8716;SDS011;4395;48.554;8.820;2023-02-01T01:12:38;3.55;;;3.25;;
8716;SDS011;4395;48.554;8.820;2023-02-01T01:14:42;4.35;;;3.95;;
8716;SDS011;4395;48.554;8.820;2023-02-01T01:16:44;4.63;;;4.20;;
8716;SDS011;4395;48.554;8.820;2023-02-01T01:18:49;4.93;;;4.43;;
8716;SDS011;4395;48.554;8.820;2023-02-01T01:20:52;5.00;;;3.83;;
8716;SDS011;4395;48.554;8.820;2023-02-01T01:22:54;4.28;;;3.88;;
8716;SDS011;4395;48.554;8.820;2023-02-01T01:24:57;7.75;;;6.38;;
8716;SDS011;4395;48.554;8.820;2023-02-01T01:27:00;5.03;;;4.30;;
8716;SDS011;4395;48.554;8.820;2023-02-01T01:29:03;4.13;;;3.72;;
8716;SDS011;4395;48.554;8.820;2023-02-01T01:31:07;4.93;;;4.10;;
8716;SDS011;4395;48.554;8.820;2023-02-01T01:33:10;4.60;;;4.20;;
8716;SDS011;4395;48.554;8.820;2023-02-01T01:35:15;4.38;;;3.97;;
8716;SDS011;4395;48.554;8.820;2023-02-01T01:37:17;4.90;;;4.32;;
8716;SDS011;4395;48.554;8.820;2023-02-01T01:39:20;4.43;;;3.65;;
8716;SDS011;4395;48.554;8.820;2023-02-01T01:41:24;5.35;;;3.88;;
8716;SDS011;4395;48.554;8.820;2023-02-01T01:43:44;4.55;;;4.15;;
8716;SDS011;4395;48.554;8.820;2023-02-01T01:45:51;5.57;;;4.03;;
8716;SDS011;4395;48.554;8.820;2023-02-01T01:47:56;5.20;;;4.38;;
8716;SDS011;4395;48.554;8.820;2023-02-01T01:50:01;4.95;;;4.45;;
8716;SDS011;4395;48.554;8.820;2023-02-01T01:52:07;4.88;;;3.90;;
8716;SDS011;4395;48.554;8.820;2023-02-01T01:54:12;5.25;;;3.83;;
8716;SDS011;4395;48.554;8.820;2023-02-01T01:56:19;4.20;;;3.80;;
8716;SDS011;4395;48.554;8.820;2023-02-01T01:58:22;3.92;;;3.50;;
8716;SDS011;4395;48.554;8.820;2023-02-01T02:00:28;4.43;;;4.03;;
8716;SDS011;4395;48.554;8.820;2023-02-01T02:02:31;4.70;;;4.18;;
8716;SDS011;4395;48.554;8.820;2023-02-01T02:04:34;3.75;;;3.35;;
8716;SDS011;4395;48.554;8.820;2023-02-01T02:06:39;4.85;;;3.65;;
8716;SDS011;4395;48.554;8.820;2023-02-01T02:08:48;4.88;;;3.92;;
8716;SDS011;4395;48.554;8.820;2023-02-01T02:10:51;4.65;;;4.15;;
8716;SDS011;4395;48.554;8.820;2023-02-01T02:13:03;4.10;;;3.70;;
8716;SDS011;4395;48.554;8.820;2023-02-01T02:15:06;4.82;;;3.88;;
8716;SDS011;4395;48.554;8.820;2023-02-01T02:17:14;4.78;;;4.28;;
8716;SDS011;4395;48.554;8.820;2023-02-01T02:19:51;3.63;;;3.33;;
8716;SDS011;4395;48.554;8.820;2023-02-01T02:22:19;4.50;;;4.10;;
8716;SDS011;4395;48.554;8.820;2023-02-01T02:24:42;5.20;;;4.10;;
8716;SDS011;4395;48.554;8.820;2023-02-01T02:27:06;3.88;;;3.58;;
8716;SDS011;4395;48.554;8.820;2023-02-01T02:29:37;4.47;;;3.80;;
8716;SDS011;4395;48.554;8.820;2023-02-01T02:31:59;4.78;;;4.28;;
8716;SDS011;4395;48.554;8.820;2023-02-01T02:34:21;4.95;;;3.95;;
8716;SDS011;4395;48.554;8.820;2023-02-01T02:36:30;4.00;;;3.63;;
8716;SDS011;4395;48.554;8.820;2023-02-01T02:38:41;4.22;;;3.83;;
8716;SDS011;4395;48.554;8.820;2023-02-01T02:40:51;4.25;;;3.85;;
8716;SDS011;4395;48.554;8.820;2023-02-01T02:43:04;4.30;;;3.90;;
8716;SDS011;4395;48.554;8.820;2023-02-01T02:45:31;4.45;;;4.05;;
8716;SDS011;4395;48.554;8.820;2023-02-01T02:48:00;3.83;;;3.50;;
8716;SDS011;4395;48.554;8.820;2023-02-01T02:50:15;4.53;;;3.80;;
8716;SDS011;4395;48.554;8.820;2023-02-01T02:52:42;4.78;;;3.70;;
8716;SDS011;4395;48.554;8.820;2023-02-01T02:55:07;5.22;;;3.85;;
8716;SDS011;4395;48.554;8.820;2023-02-01T02:57:13;4.28;;;3.88;;
8716;SDS011;4395;48.554;8.820;2023-02-01T02:59:38;5.15;;;4.07;;
8716;SDS011;4395;48.554;8.820;2023-02-01T03:02:00;4.68;;;4.10;;
8716;SDS011;4395;48.554;8.820;2023-02-01T03:04:21;4.80;;;4.18;;
8716;SDS011;4395;48.554;8.820;2023-02-01T03:06:26;5.28;;;4.68;;
8716;SDS011;4395;48.554;8.820;2023-02-01T03:08:29;5.50;;;3.88;;
8716;SDS011;4395;48.554;8.820;2023-02-01T03:10:35;6.47;;;4.40;;
8716;SDS011;4395;48.554;8.820;2023-02-01T03:12:47;4.82;;;4.32;;
8716;SDS011;4395;48.554;8.820;2023-02-01T03:15:00;5.80;;;4.80;;
8716;SDS011;4395;48.554;8.820;2023-02-01T03:17:10;4.55;;;4.15;;
8716;SDS011;4395;48.554;8.820;2023-02-01T03:19:17;5.55;;;4.40;;
8716;SDS011;4395;48.554;8.820;2023-02-01T03:21:26;4.60;;;4.20;;
8716;SDS011;4395;48.554;8.820;2023-02-01T03:23:34;5.88;;;4.45;;
8716;SDS011;4395;48.554;8.820;2023-02-01T03:25:39;4.47;;;4.07;;
8716;SDS011;4395;48.554;8.820;2023-02-01T03:27:45;5.43;;;4.38;;
8716;SDS011;4395;48.554;8.820;2023-02-01T03:29:56;4.72;;;4.30;;
8716;SDS011;4395;48.554;8.820;2023-02-01T03:32:04;5.35;;;4.82;;
8716;SDS011;4395;48.554;8.820;2023-02-01T03:34:07;4.78;;;4.20;;
8716;SDS011;4395;48.554;8.820;2023-02-01T03:36:14;5.63;;;4.32;;
8716;SDS011;4395;48.554;8.820;2023-02-01T03:38:22;4.38;;;3.92;;
8716;SDS011;4395;48.554;8.820;2023-02-01T03:40:30;5.50;;;4.05;;
8716;SDS011;4395;48.554;8.820;2023-02-01T03:42:40;4.68;;;4.15;;
8716;SDS011;4395;48.554;8.820;2023-02-01T03:44:48;4.80;;;3.85;;
8716;SDS011;4395;48.554;8.820;2023-02-01T03:46:57;3.97;;;3.58;;
8716;SDS011;4395;48.554;8.820;2023-02-01T03:49:03;4.30;;;3.90;;
8716;SDS011;4395;48.554;8.820;2023-02-01T03:51:10;4.22;;;3.83;;
8716;SDS011;4395;48.554;8.820;2023-02-01T03:53:16;3.97;;;3.60;;
8716;SDS011;4395;48.554;8.820;2023-02-01T03:55:24;4.20;;;3.80;;
8716;SDS011;4395;48.554;8.820;2023-02-01T03:57:29;4.05;;;3.65;;
8716;SDS011;4395;48.554;8.820;2023-02-01T03:59:37;3.95;;;3.55;;
8716;SDS011;4395;48.554;8.820;2023-02-01T04:01:41;4.07;;;3.25;;
8716;SDS011;4395;48.554;8.820;2023-02-01T04:03:44;3.58;;;3.10;;
8716;SDS011;4395;48.554;8.820;2023-02-01T04:05:47;3.58;;;3.28;;
8716;SDS011;4395;48.554;8.820;2023-02-01T04:07:50;3.33;;;2.90;;
8716;SDS011;4395;48.554;8.820;2023-02-01T04:09:53;3.42;;;3.13;;
8716;SDS011;4395;48.554;8.820;2023-02-01T04:11:57;3.47;;;3.17;;
8716;SDS011;4395;48.554;8.820;2023-02-01T04:14:00;3.13;;;2.92;;
8716;SDS011;4395;48.554;8.820;2023-02-01T04:16:05;2.75;;;2.55;;
8716;SDS011;4395;48.554;8.820;2023-02-01T04:18:08;3.92;;;3.50;;
8716;SDS011;4395;48.554;8.820;2023-02-01T04:20:11;4.13;;;3.13;;
8716;SDS011;4395;48.554;8.820;2023-02-01T04:22:14;2.80;;;2.60;;
8716;SDS011;4395;48.554;8.820;2023-02-01T04:24:17;2.90;;;2.70;;
8716;SDS011;4395;48.554;8.820;2023-02-01T04:26:20;4.75;;;3.05;;
8716;SDS011;4395;48.554;8.820;2023-02-01T04:28:24;3.13;;;2.90;;
8716;SDS011;4395;48.554;8.820;2023-02-01T04:30:27;4.22;;;3.47;;
8716;SDS011;4395;48.554;8.820;2023-02-01T04:32:30;3.65;;;3.28;;
8716;SDS011;4395;48.554;8.820;2023-02-01T04:34:33;3.22;;;2.92;;
8716;SDS011;4395;48.554;8.820;2023-02-01T04:36:36;2.75;;;2.53;;
8716;SDS011;4395;48.554;8.820;2023-02-01T04:38:39;3.35;;;3.05;;
8716;SDS011;4395;48.554;8.820;2023-02-01T04:40:42;2.90;;;2.65;;
8716;SDS011;4395;48.554;8.820;2023-02-01T04:42:45;2.28;;;2.08;;
8716;SDS011;4395;48.554;8.820;2023-02-01T04:44:49;2.80;;;2.60;;
8716;SDS011;4395;48.554;8.820;2023-02-01T04:46:51;2.75;;;2.55;;
8716;SDS011;4395;48.554;8.820;2023-02-01T04:48:54;2.97;;;2.63;;
8716;SDS011;4395;48.554;8.820;2023-02-01T04:50:57;3.47;;;2.95;;
8716;SDS011;4395;48.554;8.820;2023-02-01T04:53:00;2.90;;;2.65;;
8716;SDS011;4395;48.554;8.820;2023-02-01T04:55:03;2.90;;;2.70;;
8716;SDS011;4395;48.554;8.820;2023-02-01T04:57:06;4.13;;;2.90;;
8716;SDS011;4395;48.554;8.820;2023-02-01T04:59:10;2.50;;;2.30;;
8716;SDS011;4395;48.554;8.820;2023-02-01T05:01:14;2.80;;;2.60;;
8716;SDS011;4395;48.554;8.820;2023-02-01T05:03:17;2.60;;;2.40;;
8716;SDS011;4395;48.554;8.820;2023-02-01T05:05:20;2.90;;;2.70;;
8716;SDS011;4395;48.554;8.820;2023-02-01T05:07:22;3.15;;;2.65;;
8716;SDS011;4395;48.554;8.820;2023-02-01T05:09:25;4.47;;;2.90;;
8716;SDS011;4395;48.554;8.820;2023-02-01T05:11:28;3.17;;;2.75;;
8716;SDS011;4395;48.554;8.820;2023-02-01T05:13:48;3.03;;;2.72;;
8716;SDS011;4395;48.554;8.820;2023-02-01T05:15:51;2.83;;;2.53;;
8716;SDS011;4395;48.554;8.820;2023-02-01T05:17:55;3.08;;;2.78;;
8716;SDS011;4395;48.554;8.820;2023-02-01T05:19:58;2.85;;;2.65;;
8716;SDS011;4395;48.554;8.820;2023-02-01T05:22:02;3.05;;;2.75;;
8716;SDS011;4395;48.554;8.820;2023-02-01T05:24:05;3.50;;;3.20;;
8716;SDS011;4395;48.554;8.820;2023-02-01T05:26:14;3.20;;;2.85;;
8716;SDS011;4395;48.554;8.820;2023-02-01T05:28:17;4.60;;;3.72;;
8716;SDS011;4395;48.554;8.820;2023-02-01T05:30:19;4.25;;;3.33;;
8716;SDS011;4395;48.554;8.820;2023-02-01T05:32:23;3.10;;;2.75;;
8716;SDS011;4395;48.554;8.820;2023-02-01T05:34:27;3.60;;;3.30;;
8716;SDS011;4395;48.554;8.820;2023-02-01T05:36:30;3.28;;;2.80;;
8716;SDS011;4395;48.554;8.820;2023-02-01T05:38:33;3.03;;;2.80;;
8716;SDS011;4395;48.554;8.820;2023-02-01T05:40:36;4.70;;;3.50;;
8716;SDS011;4395;48.554;8.820;2023-02-01T05:42:39;3.88;;;3.30;;
8716;SDS011;4395;48.554;8.820;2023-02-01T05:44:41;3.47;;;2.85;;
8716;SDS011;4395;48.554;8.820;2023-02-01T05:46:44;3.05;;;2.85;;
8716;SDS011;4395;48.554;8.820;2023-02-01T05:48:50;3.58;;;3.22;;
8716;SDS011;4395;48.554;8.820;2023-02-01T05:50:54;4.35;;;3.10;;
8716;SDS011;4395;48.554;8.820;2023-02-01T05:52:57;3.58;;;3.05;;
8716;SDS011;4395;48.554;8.820;2023-02-01T05:55:00;3.22;;;2.90;;
8716;SDS011;4395;48.554;8.820;2023-02-01T05:57:02;3.53;;;3.05;;
8716;SDS011;4395;48.554;8.820;2023-02-01T05:59:05;3.15;;;2.58;;
8716;SDS011;4395;48.554;8.820;2023-02-01T06:01:08;3.05;;;2.80;;
8716;SDS011;4395;48.554;8.820;2023-02-01T06:03:11;4.38;;;3.20;;
8716;SDS011;4395;48.554;8.820;2023-02-01T06:05:14;3.00;;;2.70;;
8716;SDS011;4395;48.554;8.820;2023-02-01T06:07:18;3.30;;;3.00;;
8716;SDS011;4395;48.554;8.820;2023-02-01T06:09:21;3.28;;;2.92;;
8716;SDS011;4395;48.554;8.820;2023-02-01T06:11:24;3.40;;;3.10;;
8716;SDS011;4395;48.554;8.820;2023-02-01T06:13:34;3.50;;;3.20;;
8716;SDS011;4395;48.554;8.820;2023-02-01T06:15:36;3.15;;;2.85;;
8716;SDS011;4395;48.554;8.820;2023-02-01T06:17:39;2.90;;;2.70;;
8716;SDS011;4395;48.554;8.820;2023-02-01T06:19:42;3.15;;;2.83;;
8716;SDS011;4395;48.554;8.820;2023-02-01T06:21:46;4.47;;;2.97;;
8716;SDS011;4395;48.554;8.820;2023-02-01T06:23:50;4.80;;;3.25;;
8716;SDS011;4395;48.554;8.820;2023-02-01T06:25:57;3.65;;;3.28;;
8716;SDS011;4395;48.554;8.820;2023-02-01T06:28:01;4.70;;;3.30;;
8716;SDS011;4395;48.554;8.820;2023-02-01T06:30:07;3.33;;;3.03;;
8716;SDS011;4395;48.554;8.820;2023-02-01T06:32:11;3.20;;;2.83;;
8716;SDS011;4395;48.554;8.820;2023-02-01T06:34:13;3.13;;;2.50;;
8716;SDS011;4395;48.554;8.820;2023-02-01T06:36:16;4.68;;;2.90;;
8716;SDS011;4395;48.554;8.820;2023-02-01T06:38:20;4.30;;;3.10;;
8716;SDS011;4395;48.554;8.820;2023-02-01T06:40:24;3.45;;;2.95;;
8716;SDS011;4395;48.554;8.820;2023-02-01T06:42:26;3.33;;;3.03;;
8716;SDS011;4395;48.554;8.820;2023-02-01T06:44:29;3.40;;;3.10;;
8716;SDS011;4395;48.554;8.820;2023-02-01T06:46:32;12.57;;;7.57;;
8716;SDS011;4395;48.554;8.820;2023-02-01T06:48:35;3.70;;;3.10;;
8716;SDS011;4395;48.554;8.820;2023-02-01T06:50:38;2.58;;;2.22;;
8716;SDS011;4395;48.554;8.820;2023-02-01T06:52:40;2.40;;;2.20;;
8716;SDS011;4395;48.554;8.820;2023-02-01T06:54:43;2.95;;;2.28;;
8716;SDS011;4395;48.554;8.820;2023-02-01T06:56:47;3.05;;;2.70;;
8716;SDS011;4395;48.554;8.820;2023-02-01T06:58:50;3.38;;;2.60;;
8716;SDS011;4395;48.554;8.820;2023-02-01T07:00:53;3.20;;;2.90;;
8716;SDS011;4395;48.554;8.820;2023-02-01T07:02:57;3.03;;;2.83;;
8716;SDS011;4395;48.554;8.820;2023-02-01T07:05:00;3.30;;;3.00;;
8716;SDS011;4395;48.554;8.820;2023-02-01T07:07:03;3.65;;;3.00;;
8716;SDS011;4395;48.554;8.820;2023-02-01T07:09:06;3.38;;;3.08;;
8716;SDS011;4395;48.554;8.820;2023-02-01T07:11:09;5.50;;;3.33;;
8716;SDS011;4395;48.554;8.820;2023-02-01T07:13:14;2.58;;;2.30;;
8716;SDS011;4395;48.554;8.820;2023-02-01T07:15:17;3.45;;;2.50;;
8716;SDS011;4395;48.554;8.820;2023-02-01T07:17:20;3.00;;;2.67;;
8716;SDS011;4395;48.554;8.820;2023-02-01T07:19:23;2.92;;;2.72;;
8716;SDS011;4395;48.554;8.820;2023-02-01T07:21:25;4.28;;;2.80;;
8716;SDS011;4395;48.554;8.820;2023-02-01T07:23:29;2.33;;;2.13;;
8716;SDS011;4395;48.554;8.820;2023-02-01T07:25:34;3.00;;;2.70;;
8716;SDS011;4395;48.554;8.820;2023-02-01T07:27:36;3.95;;;2.80;;
8716;SDS011;4395;48.554;8.820;2023-02-01T07:29:41;3.20;;;2.90;;
8716;SDS011;4395;48.554;8.820;2023-02-01T07:31:43;2.90;;;2.60;;
8716;SDS011;4395;48.554;8.820;2023-02-01T07:33:46;4.28;;;2.53;;
8716;SDS011;4395;48.554;8.820;2023-02-01T07:35:49;4.45;;;2.90;;
8716;SDS011;4395;48.554;8.820;2023-02-01T07:37:52;2.97;;;2.70;;
8716;SDS011;4395;48.554;8.820;2023-02-01T07:39:55;2.83;;;2.58;;
8716;SDS011;4395;48.554;8.820;2023-02-01T07:41:58;3.08;;;2.67;;
8716;SDS011;4395;48.554;8.820;2023-02-01T07:44:01;4.35;;;3.17;;
8716;SDS011;4395;48.554;8.820;2023-02-01T07:46:05;3.90;;;2.45;;
8716;SDS011;4395;48.554;8.820;2023-02-01T07:48:08;4.25;;;3.03;;
8716;SDS011;4395;48.554;8.820;2023-02-01T07:50:11;8.50;;;6.53;;
8716;SDS011;4395;48.554;8.820;2023-02-01T07:52:14;4.82;;;3.72;;
8716;SDS011;4395;48.554;8.820;2023-02-01T07:54:17;4.28;;;3.33;;
8716;SDS011;4395;48.554;8.820;2023-02-01T07:56:20;4.82;;;2.95;;
8716;SDS011;4395;48.554;8.820;2023-02-01T07:58:24;3.10;;;2.80;;
8716;SDS011;4395;48.554;8.820;2023-02-01T08:00:27;3.08;;;2.50;;
8716;SDS011;4395;48.554;8.820;2023-02-01T08:02:48;3.05;;;2.50;;
8716;SDS011;4395;48.554;8.820;2023-02-01T08:04:51;3.92;;;2.63;;
8716;SDS011;4395;48.554;8.820;2023-02-01T08:06:54;3.35;;;3.05;;
8716;SDS011;4395;48.554;8.820;2023-02-01T08:08:57;2.85;;;2.63;;
8716;SDS011;4395;48.554;8.820;2023-02-01T08:11:00;3.10;;;2.90;;
8716;SDS011;4395;48.554;8.820;2023-02-01T08:13:05;3.60;;;3.25;;
8716;SDS011;4395;48.554;8.820;2023-02-01T08:15:08;3.88;;;2.90;;
8716;SDS011;4395;48.554;8.820;2023-02-01T08:17:12;3.08;;;2.80;;
8716;SDS011;4395;48.554;8.820;2023-02-01T08:19:16;3.95;;;2.83;;
8716;SDS011;4395;48.554;8.820;2023-02-01T08:21:19;4.55;;;3.20;;
8716;SDS011;4395;48.554;8.820;2023-02-01T08:23:24;3.00;;;2.53;;
8716;SDS011;4395;48.554;8.820;2023-02-01T08:25:27;4.22;;;3.33;;
8716;SDS011;4395;48.554;8.820;2023-02-01T08:27:32;4.03;;;3.10;;
8716;SDS011;4395;48.554;8.820;2023-02-01T08:29:34;3.53;;;3.05;;
8716;SDS011;4395;48.554;8.820;2023-02-01T08:31:37;4.53;;;3.00;;
8716;SDS011;4395;48.554;8.820;2023-02-01T08:33:42;5.13;;;3.28;;
8716;SDS011;4395;48.554;8.820;2023-02-01T08:35:47;13.15;;;6.45;;
8716;SDS011;4395;48.554;8.820;2023-02-01T08:37:50;4.57;;;4.13;;
8716;SDS011;4395;48.554;8.820;2023-02-01T08:39:53;3.17;;;2.92;;
8716;SDS011;4395;48.554;8.820;2023-02-01T08:41:55;5.43;;;3.40;;
8716;SDS011;4395;48.554;8.820;2023-02-01T08:44:24;3.63;;;2.78;;
8716;SDS011;4395;48.554;8.820;2023-02-01T08:46:27;5.43;;;2.70;;
8716;SDS011;4395;48.554;8.820;2023-02-01T08:48:30;5.35;;;3.20;;
8716;SDS011;4395;48.554;8.820;2023-02-01T08:50:33;5.32;;;3.00;;
8716;SDS011;4395;48.554;8.820;2023-02-01T08:52:37;6.70;;;3.67;;
8716;SDS011;4395;48.554;8.820;2023-02-01T08:54:40;4.05;;;3.28;;
8716;SDS011;4395;48.554;8.820;2023-02-01T08:56:43;5.97;;;3.75;;
8716;SDS011;4395;48.554;8.820;2023-02-01T08:58:46;6.65;;;3.58;;
8716;SDS011;4395;48.554;8.820;2023-02-01T09:00:48;5.45;;;2.75;;
8716;SDS011;4395;48.554;8.820;2023-02-01T09:02:52;11.38;;;6.47;;
8716;SDS011;4395;48.554;8.820;2023-02-01T09:04:55;7.00;;;3.90;;
8716;SDS011;4395;48.554;8.820;2023-02-01T09:07:00;7.07;;;4.38;;
8716;SDS011;4395;48.554;8.820;2023-02-01T09:09:04;8.45;;;4.78;;
8716;SDS011;4395;48.554;8.820;2023-02-01T09:11:08;5.20;;;3.42;;
8716;SDS011;4395;48.554;8.820;2023-02-01T09:13:14;6.28;;;4.13;;
8716;SDS011;4395;48.554;8.820;2023-02-01T09:15:16;7.03;;;3.03;;
8716;SDS011;4395;48.554;8.820;2023-02-01T09:17:19;4.85;;;2.80;;
8716;SDS011;4395;48.554;8.820;2023-02-01T09:19:22;6.65;;;4.93;;
8716;SDS011;4395;48.554;8.820;2023-02-01T09:21:27;8.50;;;5.38;;
8716;SDS011;4395;48.554;8.820;2023-02-01T09:23:30;8.77;;;5.68;;
8716;SDS011;4395;48.554;8.820;2023-02-01T09:25:36;8.50;;;5.20;;
8716;SDS011;4395;48.554;8.820;2023-02-01T09:27:39;5.60;;;3.03;;
8716;SDS011;4395;48.554;8.820;2023-02-01T09:29:41;5.03;;;2.97;;
8716;SDS011;4395;48.554;8.820;2023-02-01T09:31:44;6.45;;;3.97;;
8716;SDS011;4395;48.554;8.820;2023-02-01T09:34:03;6.25;;;2.47;;
8716;SDS011;4395;48.554;8.820;2023-02-01T09:36:06;5.97;;;3.50;;
8716;SDS011;4395;48.554;8.820;2023-02-01T09:38:09;7.03;;;2.95;;
8716;SDS011;4395;48.554;8.820;2023-02-01T09:40:13;7.32;;;3.22;;
8716;SDS011;4395;48.554;8.820;2023-02-01T09:42:21;8.52;;;4.57;;
8716;SDS011;4395;48.554;8.820;2023-02-01T09:44:51;17.25;;;10.43;;
8716;SDS011;4395;48.554;8.820;2023-02-01T09:47:03;8.38;;;5.13;;
8716;SDS011;4395;48.554;8.820;2023-02-01T09:49:12;6.25;;;3.08;;
8716;SDS011;4395;48.554;8.820;2023-02-01T09:51:21;5.90;;;3.13;;
8716;SDS011;4395;48.554;8.820;2023-02-01T09:53:28;6.05;;;3.15;;
8716;SDS011;4395;48.554;8.820;2023-02-01T09:55:36;6.53;;;3.10;;
8716;SDS011;4395;48.554;8.820;2023-02-01T09:57:46;7.93;;;3.55;;
8716;SDS011;4395;48.554;8.820;2023-02-01T09:59:57;7.20;;;3.08;;
8716;SDS011;4395;48.554;8.820;2023-02-01T10:02:13;6.32;;;2.35;;
8716;SDS011;4395;48.554;8.820;2023-02-01T10:04:19;6.45;;;2.97;;
8716;SDS011;4395;48.554;8.820;2023-02-01T10:06:25;9.98;;;2.83;;
8716;SDS011;4395;48.554;8.820;2023-02-01T10:08:37;12.93;;;3.55;;
8716;SDS011;4395;48.554;8.820;2023-02-01T10:10:52;8.27;;;2.88;;
8716;SDS011;4395;48.554;8.820;2023-02-01T10:13:07;12.23;;;3.28;;
8716;SDS011;4395;48.554;8.820;2023-02-01T10:15:22;5.95;;;2.55;;
8716;SDS011;4395;48.554;8.820;2023-02-01T10:17:38;12.68;;;2.65;;
8716;SDS011;4395;48.554;8.820;2023-02-01T10:19:52;10.20;;;2.65;;
8716;SDS011;4395;48.554;8.820;2023-02-01T10:22:06;5.90;;;2.35;;
8716;SDS011;4395;48.554;8.820;2023-02-01T10:24:16;8.20;;;2.50;;
8716;SDS011;4395;48.554;8.820;2023-02-01T10:26:26;7.90;;;2.70;;
8716;SDS011;4395;48.554;8.820;2023-02-01T10:28:34;8.27;;;3.13;;
8716;SDS011;4395;48.554;8.820;2023-02-01T10:30:41;9.48;;;2.85;;
8716;SDS011;4395;48.554;8.820;2023-02-01T10:32:47;9.82;;;4.10;;
8716;SDS011;4395;48.554;8.820;2023-02-01T10:34:53;7.40;;;3.30;;
8716;SDS011;4395;48.554;8.820;2023-02-01T10:37:00;6.40;;;2.80;;
8716;SDS011;4395;48.554;8.820;2023-02-01T10:39:10;5.85;;;3.08;;
8716;SDS011;4395;48.554;8.820;2023-02-01T10:41:17;8.40;;;2.70;;
8716;SDS011;4395;48.554;8.820;2023-02-01T10:43:22;9.15;;;2.22;;
8716;SDS011;4395;48.554;8.820;2023-02-01T10:45:27;5.72;;;2.60;;
8716;SDS011;4395;48.554;8.820;2023-02-01T10:47:31;7.28;;;2.03;;
8716;SDS011;4395;48.554;8.820;2023-02-01T10:49:36;9.07;;;3.20;;
8716;SDS011;4395;48.554;8.820;2023-02-01T10:51:45;7.75;;;2.85;;
8716;SDS011;4395;48.554;8.820;2023-02-01T10:53:55;9.85;;;2.80;;
8716;SDS011;4395;48.554;8.820;2023-02-01T10:56:05;7.97;;;2.28;;
8716;SDS011;4395;48.554;8.820;2023-02-01T10:58:14;8.27;;;3.38;;
8716;SDS011;4395;48.554;8.820;2023-02-01T11:00:19;8.13;;;3.55;;
8716;SDS011;4395;48.554;8.820;2023-02-01T11:02:26;8.88;;;2.70;;
8716;SDS011;4395;48.554;8.820;2023-02-01T11:04:33;8.38;;;3.67;;
8716;SDS011;4395;48.554;8.820;2023-02-01T11:06:37;5.00;;;2.20;;
8716;SDS011;4395;48.554;8.820;2023-02-01T11:08:42;10.32;;;3.75;;
8716;SDS011;4395;48.554;8.820;2023-02-01T11:10:47;5.85;;;2.35;;
8716;SDS011;4395;48.554;8.820;2023-02-01T11:13:01;6.38;;;3.25;;
8716;SDS011;4395;48.554;8.820;2023-02-01T11:15:13;10.32;;;3.08;;
8716;SDS011;4395;48.554;8.820;2023-02-01T11:17:24;6.78;;;3.03;;
8716;SDS011;4395;48.554;8.820;2023-02-01T11:19:30;6.15;;;2.97;;
8716;SDS011;4395;48.554;8.820;2023-02-01T11:21:34;5.63;;;2.33;;
8716;SDS011;4395;48.554;8.820;2023-02-01T11:23:39;6.05;;;2.22;;
8716;SDS011;4395;48.554;8.820;2023-02-01T11:25:49;8.43;;;2.55;;
8716;SDS011;4395;48.554;8.820;2023-02-01T11:27:54;7.68;;;2.70;;
8716;SDS011;4395;48.554;8.820;2023-02-01T11:30:01;5.43;;;2.17;;
8716;SDS011;4395;48.554;8.820;2023-02-01T11:32:05;7.10;;;2.42;;
8716;SDS011;4395;48.554;8.820;2023-02-01T11:34:15;6.82;;;1.88;;
8716;SDS011;4395;48.554;8.820;2023-02-01T11:36:23;6.43;;;2.30;;
8716;SDS011;4395;48.554;8.820;2023-02-01T11:38:29;5.28;;;2.60;;
8716;SDS011;4395;48.554;8.820;2023-02-01T11:40:34;7.32;;;2.72;;
8716;SDS011;4395;48.554;8.820;2023-02-01T11:42:38;5.95;;;2.70;;
8716;SDS011;4395;48.554;8.820;2023-02-01T11:47:24;6.97;;;2.72;;
8716;SDS011;4395;48.554;8.820;2023-02-01T11:49:30;8.38;;;3.28;;
8716;SDS011;4395;48.554;8.820;2023-02-01T11:51:37;8.60;;;3.45;;
8716;SDS011;4395;48.554;8.820;2023-02-01T11:53:54;5.43;;;2.83;;
8716;SDS011;4395;48.554;8.820;2023-02-01T11:56:11;6.75;;;3.03;;
8716;SDS011;4395;48.554;8.820;2023-02-01T12:01:01;5.10;;;2.20;;
8716;SDS011;4395;48.554;8.820;2023-02-01T12:03:24;5.93;;;3.28;;
8716;SDS011;4395;48.554;8.820;2023-02-01T12:05:47;9.63;;;3.78;;
8716;SDS011;4395;48.554;8.820;2023-02-01T12:08:02;8.82;;;3.83;;
8716;SDS011;4395;48.554;8.820;2023-02-01T12:10:24;9.30;;;4.75;;
8716;SDS011;4395;48.554;8.820;2023-02-01T12:12:39;9.82;;;3.53;;
8716;SDS011;4395;48.554;8.820;2023-02-01T12:14:56;6.70;;;3.00;;
8716;SDS011;4395;48.554;8.820;2023-02-01T12:19:50;6.25;;;2.90;;
8716;SDS011;4395;48.554;8.820;2023-02-01T12:22:12;6.25;;;3.08;;
8716;SDS011;4395;48.554;8.820;2023-02-01T12:24:28;5.50;;;2.53;;
8716;SDS011;4395;48.554;8.820;2023-02-01T12:26:43;10.65;;;3.22;;
8716;SDS011;4395;48.554;8.820;2023-02-01T12:29:00;6.80;;;2.72;;
8716;SDS011;4395;48.554;8.820;2023-02-01T12:31:16;9.00;;;2.67;;
8716;SDS011;4395;48.554;8.820;2023-02-01T12:33:29;7.97;;;4.07;;
8716;SDS011;4395;48.554;8.820;2023-02-01T12:35:42;10.88;;;4.32;;
8716;SDS011;4395;48.554;8.820;2023-02-01T12:37:57;10.13;;;3.78;;
8716;SDS011;4395;48.554;8.820;2023-02-01T12:40:13;6.22;;;2.55;;
8716;SDS011;4395;48.554;8.820;2023-02-01T12:42:25;10.18;;;3.28;;
8716;SDS011;4395;48.554;8.820;2023-02-01T12:44:35;6.65;;;2.70;;
8716;SDS011;4395;48.554;8.820;2023-02-01T12:46:43;6.45;;;3.08;;
8716;SDS011;4395;48.554;8.820;2023-02-01T12:48:52;7.03;;;2.90;;
8716;SDS011;4395;48.554;8.820;2023-02-01T12:50:59;5.97;;;3.00;;
8716;SDS011;4395;48.554;8.820;2023-02-01T12:53:08;11.98;;;3.65;;
8716;SDS011;4395;48.554;8.820;2023-02-01T12:55:22;7.80;;;3.08;;
8716;SDS011;4395;48.554;8.820;2023-02-01T12:57:26;9.60;;;3.33;;
8716;SDS011;4395;48.554;8.820;2023-02-01T12:59:33;4.88;;;2.60;;
8716;SDS011;4395;48.554;8.820;2023-02-01T13:01:40;9.18;;;3.00;;
8716;SDS011;4395;48.554;8.820;2023-02-01T13:03:54;6.07;;;2.90;;
8716;SDS011;4395;48.554;8.820;2023-02-01T13:06:02;6.72;;;2.65;;
8716;SDS011;4395;48.554;8.820;2023-02-01T13:08:11;9.23;;;3.60;;
8716;SDS011;4395;48.554;8.820;2023-02-01T13:10:20;10.85;;;4.03;;
8716;SDS011;4395;48.554;8.820;2023-02-01T13:12:33;5.88;;;2.90;;
8716;SDS011;4395;48.554;8.820;2023-02-01T13:14:39;7.00;;;2.92;;